Terminal Aerodrome Forecast
Issued by NWS

Home | Current Version | Previous Version | Text Only | Print | Product List | Glossary On
Versions: 1 2 3 4 5 6 7 8 9 10 11 12 13 14 15 16
000
FTUS43 KJKL 200540
TAFSME
TAF
KSME 200540Z 2006/2106 18006KT 6SM -SHRA BKN035
     FM200800 22005KT 4SM -SHRA BR OVC025
     FM201300 20004KT P6SM -SHRA OVC015
     FM201800 19004KT P6SM VCSH BKN050
     FM210200 VRB03KT P6SM SCT050=

USA.gov is the U.S. government's official web portal to all federal, state and local government web resources and services.